Time;durP1;ratioP1;P1;durP2;ratioP2;P2;SDS_P1;SDS_P2;PMS_P1;PMS_P2;Temp;Humidity;BMP_temperature;BMP_pressure;BME280_temperature;BME280_humidity;BME280_pressure;Samples;Min_cycle;Max_cycle;Signal;HPM_P1;HPM_P2
2022/12/01 00:00:42;;;;;;;3.42;0.80;;;;;;;;;;5028280;28;20056;-68
2022/12/01 00:03:12;;;;;;;5.30;0.82;;;;;;;;;;5019990;28;20042;-69
2022/12/01 00:05:42;;;;;;;3.25;1.30;;;;;;;;;;5025495;28;20418;-71
2022/12/01 00:08:12;;;;;;;4.50;1.10;;;;;;;;;;5027139;28;20120;-69
2022/12/01 00:10:42;;;;;;;2.88;1.02;;;;;;;;;;5028849;28;20053;-66
2022/12/01 00:13:12;;;;;;;3.05;0.90;;;;;;;;;;4995412;28;20045;-68
2022/12/01 00:15:43;;;;;;;3.10;1.05;;;;;;;;;;5028597;28;20054;-69
2022/12/01 00:18:13;;;;;;;3.17;1.05;;;;;;;;;;5017932;28;20065;-66
2022/12/01 00:20:43;;;;;;;3.97;1.30;;;;;;;;;;4991650;28;20095;-70
2022/12/01 00:23:12;;;;;;;2.63;1.42;;;;;;;;;;5009010;28;20387;-73
2022/12/01 00:25:44;;;;;;;3.60;0.90;;;;;;;;;;5008943;28;20537;-68
2022/12/01 00:28:14;;;;;;;2.35;0.70;;;;;;;;;;5021264;28;20050;-68
2022/12/01 00:30:44;;;;;;;3.45;0.80;;;;;;;;;;5011479;28;20050;-70
2022/12/01 00:33:13;;;;;;;2.13;0.90;;;;;;;;;;4992811;28;20065;-70
2022/12/01 00:35:44;;;;;;;4.05;1.08;;;;;;;;;;5010134;28;20049;-71
2022/12/01 00:38:15;;;;;;;1.73;0.95;;;;;;;;;;5011335;28;20050;-70
2022/12/01 00:40:46;;;;;;;3.95;1.10;;;;;;;;;;5010651;28;20061;-70
2022/12/01 00:43:15;;;;;;;4.57;0.90;;;;;;;;;;4990910;28;20429;-68
2022/12/01 00:45:47;;;;;;;3.83;0.90;;;;;;;;;;5009774;28;20103;-67
2022/12/01 00:48:17;;;;;;;2.30;0.80;;;;;;;;;;5007177;28;20050;-66
2022/12/01 00:50:47;;;;;;;2.90;0.82;;;;;;;;;;4974743;28;20201;-65
2022/12/01 00:53:17;;;;;;;2.53;1.05;;;;;;;;;;5007529;28;20054;-67
2022/12/01 00:55:47;;;;;;;2.53;0.70;;;;;;;;;;5006736;28;20058;-65
2022/12/01 00:58:17;;;;;;;5.60;0.70;;;;;;;;;;4988490;28;20046;-63
2022/12/01 01:00:47;;;;;;;5.20;1.13;;;;;;;;;;4975904;28;20062;-65
2022/12/01 01:03:17;;;;;;;5.15;1.58;;;;;;;;;;4975551;28;20061;-65
2022/12/01 01:05:48;;;;;;;3.00;0.80;;;;;;;;;;4962612;28;20057;-64
2022/12/01 01:08:18;;;;;;;2.75;1.10;;;;;;;;;;5011637;28;20045;-65
2022/12/01 01:10:48;;;;;;;3.45;1.00;;;;;;;;;;5012082;28;20041;-64
2022/12/01 01:13:18;;;;;;;2.13;0.63;;;;;;;;;;5010701;28;20058;-65
2022/12/01 01:16:04;;;;;;;2.75;0.80;;;;;;;;;;4993732;28;20058;-65
2022/12/01 01:18:35;;;;;;;6.70;0.93;;;;;;;;;;5010721;28;20084;-65
2022/12/01 01:21:07;;;;;;;3.20;1.02;;;;;;;;;;4994079;28;20469;-64
2022/12/01 01:23:38;;;;;;;2.25;0.65;;;;;;;;;;5010984;28;20052;-64
2022/12/01 01:26:15;;;;;;;34.45;1.60;;;;;;;;;;5011318;28;20060;-63
2022/12/01 01:28:47;;;;;;;18.08;1.50;;;;;;;;;;5012657;28;20049;-63
2022/12/01 01:31:20;;;;;;;2.85;0.90;;;;;;;;;;5013350;28;20049;-63
2022/12/01 01:33:51;;;;;;;6.10;0.93;;;;;;;;;;5013705;28;20061;-63
2022/12/01 01:36:22;;;;;;;6.70;1.00;;;;;;;;;;5014020;28;20398;-62
2022/12/01 01:38:53;;;;;;;3.35;1.10;;;;;;;;;;4978079;28;20070;-64
2022/12/01 01:41:24;;;;;;;4.53;0.90;;;;;;;;;;5010890;28;20065;-63
2022/12/01 01:43:57;;;;;;;3.45;0.93;;;;;;;;;;4995301;28;20050;-63
2022/12/01 01:46:33;;;;;;;2.30;0.90;;;;;;;;;;5011098;28;20130;-62
2022/12/01 01:49:09;;;;;;;2.25;1.02;;;;;;;;;;4993381;28;20052;-63
2022/12/01 01:51:50;;;;;;;5.80;1.27;;;;;;;;;;5010888;28;20514;-65
2022/12/01 01:54:27;;;;;;;2.97;1.10;;;;;;;;;;5007403;28;20050;-64
2022/12/01 01:57:01;;;;;;;4.22;1.15;;;;;;;;;;4977756;28;20050;-63
2022/12/01 01:59:40;;;;;;;4.72;1.00;;;;;;;;;;4993346;28;20058;-66
2022/12/01 02:02:12;;;;;;;2.53;1.20;;;;;;;;;;4991470;28;20066;-66
2022/12/01 02:04:47;;;;;;;2.85;1.15;;;;;;;;;;4943542;28;20058;-64
2022/12/01 02:07:19;;;;;;;2.95;1.25;;;;;;;;;;4990846;28;20042;-64
2022/12/01 02:09:50;;;;;;;2.45;0.95;;;;;;;;;;4989317;28;20494;-64
2022/12/01 02:12:31;;;;;;;1.90;0.93;;;;;;;;;;4968673;28;20058;-65
2022/12/01 02:15:23;;;;;;;2.60;1.00;;;;;;;;;;5011155;28;20451;-65
2022/12/01 02:18:04;;;;;;;4.05;1.52;;;;;;;;;;5030064;28;20121;-64
2022/12/01 02:20:39;;;;;;;3.00;1.05;;;;;;;;;;5014595;28;20042;-65
2022/12/01 02:23:21;;;;;;;5.43;1.40;;;;;;;;;;5030503;28;20060;-66
2022/12/01 02:26:00;;;;;;;4.78;1.27;;;;;;;;;;5029358;28;20441;-65
2022/12/01 02:29:07;;;;;;;2.35;1.30;;;;;;;;;;5028028;28;20065;-65
2022/12/01 02:32:03;;;;;;;3.35;1.30;;;;;;;;;;5029550;28;20057;-65
2022/12/01 02:34:56;;;;;;;7.25;1.20;;;;;;;;;;4989937;28;20065;-65
2022/12/01 02:37:55;;;;;;;3.63;1.13;;;;;;;;;;4990031;28;20078;-65
2022/12/01 02:40:33;;;;;;;5.72;1.20;;;;;;;;;;4973855;28;20536;-64
2022/12/01 02:43:08;;;;;;;2.80;1.50;;;;;;;;;;4973828;28;20065;-64
2022/12/01 02:45:47;;;;;;;2.47;1.17;;;;;;;;;;4973310;28;20061;-64
2022/12/01 02:48:32;;;;;;;4.45;1.35;;;;;;;;;;4990708;28;20057;-64
2022/12/01 02:51:21;;;;;;;2.78;1.30;;;;;;;;;;4942300;28;20077;-63
2022/12/01 02:53:54;;;;;;;3.67;2.47;;;;;;;;;;4990802;28;20058;-62
2022/12/01 02:56:24;;;;;;;;;;;;;;;;;;4991154;28;20038;-63
2022/12/01 02:58:54;;;;;;;2.65;1.05;;;;;;;;;;4990412;28;19937;-62
2022/12/01 03:01:36;;;;;;;4.57;1.40;;;;;;;;;;4942018;28;20054;-62
2022/12/01 03:04:13;;;;;;;3.15;1.08;;;;;;;;;;4989892;28;20422;-62
2022/12/01 03:07:18;;;;;;;2.75;1.10;;;;;;;;;;4990388;28;20046;-63
2022/12/01 03:10:07;;;;;;;2.92;1.27;;;;;;;;;;4940222;28;20066;-62
2022/12/01 03:12:51;;;;;;;2.53;1.15;;;;;;;;;;5011437;28;20053;-62
2022/12/01 03:15:24;;;;;;;2.70;1.25;;;;;;;;;;4993801;28;20050;-62
2022/12/01 03:18:13;;;;;;;2.70;1.20;;;;;;;;;;4993911;28;20498;-62
2022/12/01 03:21:12;;;;;;;4.60;1.67;;;;;;;;;;5012034;28;20042;-61
2022/12/01 03:23:47;;;;;;;2.88;1.20;;;;;;;;;;5010117;28;20062;-62
2022/12/01 03:26:22;;;;;;;4.28;1.23;;;;;;;;;;5012239;28;20046;-62
2022/12/01 03:29:02;;;;;;;6.63;1.45;;;;;;;;;;5010430;28;20054;-62
2022/12/01 03:31:39;;;;;;;3.47;1.50;;;;;;;;;;4977254;28;20062;-62
2022/12/01 03:34:23;;;;;;;3.15;1.42;;;;;;;;;;5012296;28;20482;-62
2022/12/01 03:37:05;;;;;;;3.50;1.48;;;;;;;;;;5009424;28;20054;-63
2022/12/01 03:39:37;;;;;;;2.72;1.83;;;;;;;;;;5011982;28;20532;-63
2022/12/01 03:42:22;;;;;;;3.65;1.90;;;;;;;;;;5009615;28;20060;-63
2022/12/01 03:44:59;;;;;;;4.85;1.75;;;;;;;;;;5010545;28;20042;-63
2022/12/01 03:47:34;;;;;;;3.72;2.00;;;;;;;;;;5011828;28;20050;-63
2022/12/01 03:50:07;;;;;;;4.88;2.00;;;;;;;;;;5011686;28;20398;-63
2022/12/01 03:52:54;;;;;;;5.20;1.60;;;;;;;;;;4993351;28;20073;-63
2022/12/01 03:55:28;;;;;;;6.43;1.75;;;;;;;;;;5011612;28;20042;-63
2022/12/01 03:58:04;;;;;;;4.05;1.83;;;;;;;;;;5011869;28;20044;-63
2022/12/01 04:00:35;;;;;;;2.67;1.55;;;;;;;;;;5011845;28;20054;-63
2022/12/01 04:03:06;;;;;;;6.57;1.80;;;;;;;;;;5011586;28;20046;-63
2022/12/01 04:05:36;;;;;;;3.97;1.73;;;;;;;;;;5011695;28;20038;-64
2022/12/01 04:08:07;;;;;;;4.18;1.92;;;;;;;;;;5025954;28;20065;-64
2022/12/01 04:10:37;;;;;;;3.33;1.63;;;;;;;;;;4976186;28;20061;-63
2022/12/01 04:13:14;;;;;;;2.90;1.48;;;;;;;;;;5011404;28;20406;-63
2022/12/01 04:15:45;;;;;;;5.00;1.63;;;;;;;;;;5011708;28;21131;-64
2022/12/01 04:18:15;;;;;;;4.10;1.50;;;;;;;;;;4976305;28;20060;-63
2022/12/01 04:20:46;;;;;;;3.83;1.85;;;;;;;;;;5009258;28;20454;-64
2022/12/01 04:26:04;;;;;;;3.95;1.85;;;;;;;;;;5011181;28;20050;-63
2022/12/01 04:28:42;;;;;;;2.78;1.33;;;;;;;;;;5028369;28;20060;-63
2022/12/01 04:31:12;;;;;;;3.97;1.65;;;;;;;;;;5012473;28;20062;-63
2022/12/01 04:33:43;;;;;;;3.95;1.60;;;;;;;;;;5011730;28;20057;-63
2022/12/01 04:36:12;;;;;;;4.40;1.50;;;;;;;;;;5028907;28;20533;-63
2022/12/01 04:38:42;;;;;;;3.25;2.03;;;;;;;;;;5028706;28;20056;-63
2022/12/01 04:41:13;;;;;;;6.63;1.80;;;;;;;;;;5012189;28;20537;-63
2022/12/01 04:43:44;;;;;;;6.20;1.85;;;;;;;;;;5012547;28;20417;-63
2022/12/01 04:46:15;;;;;;;4.65;1.75;;;;;;;;;;5012720;28;20054;-63
2022/12/01 04:48:44;;;;;;;4.75;2.03;;;;;;;;;;4995963;28;20053;-64
2022/12/01 04:51:14;;;;;;;4.20;1.92;;;;;;;;;;5012539;28;20549;-63
2022/12/01 04:53:44;;;;;;;3.25;1.45;;;;;;;;;;4963829;28;20053;-63
2022/12/01 04:56:16;;;;;;;5.35;2.13;;;;;;;;;;5012585;28;20042;-64
2022/12/01 04:58:46;;;;;;;3.58;1.98;;;;;;;;;;4996010;28;20062;-63
2022/12/01 05:01:17;;;;;;;2.63;1.52;;;;;;;;;;4963969;28;20057;-64
2022/12/01 05:03:51;;;;;;;4.20;1.70;;;;;;;;;;4996249;28;20392;-63
2022/12/01 05:06:26;;;;;;;2.75;1.92;;;;;;;;;;4963534;28;20046;-63
2022/12/01 05:09:01;;;;;;;4.05;1.92;;;;;;;;;;4996093;28;20406;-63
2022/12/01 05:11:32;;;;;;;3.58;1.90;;;;;;;;;;4995662;28;20057;-63
2022/12/01 05:14:01;;;;;;;4.20;1.75;;;;;;;;;;4995964;28;20081;-64
2022/12/01 05:16:32;;;;;;;2.63;1.83;;;;;;;;;;5011950;28;20060;-64
2022/12/01 05:21:53;;;;;;;2.72;1.90;;;;;;;;;;4998799;28;20050;-64
2022/12/01 05:24:23;;;;;;;5.80;2.03;;;;;;;;;;5015194;28;20057;-63
2022/12/01 05:26:53;;;;;;;3.53;2.28;;;;;;;;;;5031721;28;20077;-64
2022/12/01 05:29:23;;;;;;;4.72;2.47;;;;;;;;;;4998652;28;20888;-64
2022/12/01 05:31:53;;;;;;;6.55;2.20;;;;;;;;;;4966294;28;20437;-64
2022/12/01 05:34:22;;;;;;;3.92;1.85;;;;;;;;;;5030931;28;20053;-63
2022/12/01 05:36:53;;;;;;;5.32;1.80;;;;;;;;;;5031498;28;20053;-64
2022/12/01 05:39:22;;;;;;;5.22;1.92;;;;;;;;;;5014920;28;20053;-64
2022/12/01 05:41:53;;;;;;;4.32;2.03;;;;;;;;;;5031379;28;20050;-64
2022/12/01 05:44:22;;;;;;;6.05;1.83;;;;;;;;;;5031062;28;20049;-63
2022/12/01 05:46:52;;;;;;;4.57;2.30;;;;;;;;;;5031453;28;20057;-64
2022/12/01 05:49:22;;;;;;;3.42;2.13;;;;;;;;;;5015057;28;20073;-64
2022/12/01 05:51:52;;;;;;;3.50;1.92;;;;;;;;;;4964717;28;20060;-64
2022/12/01 05:54:22;;;;;;;3.10;2.03;;;;;;;;;;5020740;28;20058;-64
2022/12/01 05:56:53;;;;;;;5.97;3.10;;;;;;;;;;5028039;28;20418;-64
2022/12/01 05:59:23;;;;;;;4.55;1.85;;;;;;;;;;5013499;28;20058;-64
2022/12/01 06:01:53;;;;;;;3.30;1.83;;;;;;;;;;4979238;28;20062;-64
2022/12/01 06:04:23;;;;;;;5.20;2.00;;;;;;;;;;4995197;28;20066;-64
2022/12/01 06:06:53;;;;;;;7.72;2.10;;;;;;;;;;4978915;28;20058;-64
2022/12/01 06:09:23;;;;;;;11.70;2.22;;;;;;;;;;5027766;28;20129;-64
2022/12/01 06:11:52;;;;;;;3.88;1.95;;;;;;;;;;5012680;28;20046;-64
2022/12/01 06:14:22;;;;;;;5.13;1.85;;;;;;;;;;5013466;28;20042;-64
2022/12/01 06:16:52;;;;;;;5.82;2.05;;;;;;;;;;5013514;28;20046;-64
2022/12/01 06:19:22;;;;;;;8.27;2.40;;;;;;;;;;5013314;28;20474;-64
2022/12/01 06:21:52;;;;;;;11.35;2.83;;;;;;;;;;5013086;28;20402;-64
2022/12/01 06:24:22;;;;;;;6.95;2.58;;;;;;;;;;4994966;28;20081;-64
2022/12/01 06:26:53;;;;;;;5.03;2.30;;;;;;;;;;5027149;28;20061;-64
2022/12/01 06:29:23;;;;;;;5.63;1.95;;;;;;;;;;5013352;28;20049;-63
2022/12/01 06:31:53;;;;;;;5.70;2.15;;;;;;;;;;4994069;28;20078;-64
2022/12/01 06:34:23;;;;;;;7.88;2.10;;;;;;;;;;4977634;28;20101;-64
2022/12/01 06:36:52;;;;;;;5.45;2.42;;;;;;;;;;5010473;28;20058;-64
2022/12/01 06:39:22;;;;;;;9.75;2.40;;;;;;;;;;5010581;28;20050;-64
2022/12/01 06:41:52;;;;;;;8.63;2.67;;;;;;;;;;5010103;28;20414;-63
2022/12/01 06:44:22;;;;;;;6.28;2.70;;;;;;;;;;5010635;28;20054;-64
2022/12/01 06:46:52;;;;;;;5.75;2.30;;;;;;;;;;5010331;28;20065;-64
2022/12/01 06:49:22;;;;;;;9.13;2.47;;;;;;;;;;4977448;28;20067;-63
2022/12/01 06:51:51;;;;;;;10.63;2.88;;;;;;;;;;5010060;28;20050;-64
2022/12/01 06:54:21;;;;;;;6.82;2.45;;;;;;;;;;5010197;28;20395;-64
2022/12/01 06:56:51;;;;;;;8.57;2.40;;;;;;;;;;5010176;28;20054;-64
2022/12/01 06:59:22;;;;;;;6.95;2.53;;;;;;;;;;5026172;28;20495;-64
2022/12/01 07:01:53;;;;;;;5.50;2.10;;;;;;;;;;5025864;28;20080;-64
2022/12/01 07:04:22;;;;;;;5.07;2.00;;;;;;;;;;5010119;28;20069;-64
2022/12/01 07:06:52;;;;;;;6.93;2.60;;;;;;;;;;5009834;28;20072;-64
2022/12/01 07:09:22;;;;;;;6.28;2.45;;;;;;;;;;5021537;28;20058;-64
2022/12/01 07:11:52;;;;;;;9.38;2.30;;;;;;;;;;5025898;28;20061;-64
2022/12/01 07:14:25;;;;;;;4.63;2.10;;;;;;;;;;5012069;28;20048;-64
2022/12/01 07:16:55;;;;;;;8.40;2.33;;;;;;;;;;5012285;28;20038;-64
2022/12/01 07:19:25;;;;;;;8.38;2.50;;;;;;;;;;5042952;28;20406;-65
2022/12/01 07:21:55;;;;;;;5.50;2.35;;;;;;;;;;4993674;28;20053;-64
2022/12/01 07:24:26;;;;;;;9.50;2.60;;;;;;;;;;5011884;28;20046;-63
2022/12/01 07:26:56;;;;;;;11.90;2.70;;;;;;;;;;4993428;28;20058;-63
2022/12/01 07:29:25;;;;;;;10.18;2.20;;;;;;;;;;5026315;28;20053;-64
2022/12/01 07:31:55;;;;;;;4.63;2.28;;;;;;;;;;5011815;28;20052;-64
2022/12/01 07:34:25;;;;;;;6.60;2.60;;;;;;;;;;5042416;28;20053;-65
2022/12/01 07:36:55;;;;;;;12.00;2.88;;;;;;;;;;4993430;28;20062;-64
2022/12/01 07:39:25;;;;;;;9.57;2.80;;;;;;;;;;5010826;28;20049;-64
2022/12/01 07:41:56;;;;;;;5.00;2.78;;;;;;;;;;5012153;28;20042;-65
2022/12/01 07:44:25;;;;;;;5.55;2.30;;;;;;;;;;5011600;28;20049;-64
2022/12/01 07:46:55;;;;;;;8.95;2.50;;;;;;;;;;5011848;28;20049;-64
2022/12/01 07:49:25;;;;;;;10.45;2.45;;;;;;;;;;5011721;28;20053;-64
2022/12/01 07:51:55;;;;;;;6.07;2.40;;;;;;;;;;4993230;28;20058;-64
2022/12/01 07:54:25;;;;;;;4.28;2.40;;;;;;;;;;5025394;28;20058;-65
2022/12/01 07:56:55;;;;;;;9.65;2.30;;;;;;;;;;5025751;28;20057;-64
2022/12/01 07:59:25;;;;;;;5.57;2.13;;;;;;;;;;5010259;28;20065;-64
2022/12/01 08:01:55;;;;;;;8.02;2.13;;;;;;;;;;5011709;28;20054;-64
2022/12/01 08:04:25;;;;;;;8.05;2.42;;;;;;;;;;4992712;28;20497;-64
2022/12/01 08:06:55;;;;;;;4.32;2.17;;;;;;;;;;5011756;28;20045;-64
2022/12/01 08:09:25;;;;;;;4.28;2.17;;;;;;;;;;5011524;28;20042;-64
2022/12/01 08:11:55;;;;;;;8.15;2.60;;;;;;;;;;4976652;28;20069;-64
2022/12/01 08:14:25;;;;;;;5.97;2.25;;;;;;;;;;4976142;28;20053;-64
2022/12/01 08:16:54;;;;;;;6.40;2.30;;;;;;;;;;5011598;28;20394;-64
2022/12/01 08:19:26;;;;;;;7.75;2.72;;;;;;;;;;5011068;28;20041;-64
2022/12/01 08:21:56;;;;;;;7.10;2.58;;;;;;;;;;4991232;28;20076;-65
2022/12/01 08:24:26;;;;;;;11.80;2.80;;;;;;;;;;5010114;28;20046;-64
2022/12/01 08:26:56;;;;;;;6.63;2.63;;;;;;;;;;5011090;28;20048;-64
2022/12/01 08:29:27;;;;;;;11.48;2.42;;;;;;;;;;5008965;28;20065;-64
2022/12/01 08:31:58;;;;;;;5.25;2.50;;;;;;;;;;5011666;28;20050;-63
2022/12/01 08:34:28;;;;;;;49.58;4.15;;;;;;;;;;5008896;28;20517;-62
2022/12/01 08:36:58;;;;;;;7.88;2.47;;;;;;;;;;4992570;28;20069;-64
2022/12/01 08:39:27;;;;;;;8.85;2.10;;;;;;;;;;5010931;28;20050;-64
2022/12/01 08:41:57;;;;;;;9.35;2.53;;;;;;;;;;5011350;28;20053;-64
2022/12/01 08:44:27;;;;;;;5.72;2.10;;;;;;;;;;5010874;28;20053;-64
2022/12/01 08:46:57;;;;;;;6.97;1.90;;;;;;;;;;4976100;28;20425;-64
2022/12/01 08:49:27;;;;;;;10.23;2.38;;;;;;;;;;5008754;28;20054;-64
2022/12/01 08:51:57;;;;;;;10.00;2.35;;;;;;;;;;5008772;28;20062;-64
2022/12/01 08:54:27;;;;;;;6.05;2.72;;;;;;;;;;4976110;28;20062;-64
2022/12/01 08:56:56;;;;;;;10.70;3.13;;;;;;;;;;5008622;28;20058;-64
2022/12/01 08:59:27;;;;;;;10.45;3.25;;;;;;;;;;5008482;28;20049;-64
2022/12/01 09:01:57;;;;;;;6.38;3.05;;;;;;;;;;5008518;28;20050;-64
2022/12/01 09:04:34;;;;;;;7.40;2.85;;;;;;;;;;4975611;28;20077;-64
2022/12/01 09:07:05;;;;;;;6.95;2.55;;;;;;;;;;4995041;28;20049;-64
2022/12/01 09:09:35;;;;;;;6.18;2.90;;;;;;;;;;5027793;28;20170;-63
2022/12/01 09:12:06;;;;;;;7.95;2.60;;;;;;;;;;5027916;28;20046;-64
2022/12/01 09:14:42;;;;;;;10.80;2.67;;;;;;;;;;4995446;28;20514;-64
2022/12/01 09:17:11;;;;;;;4.53;2.42;;;;;;;;;;5027900;28;20050;-64
2022/12/01 09:19:43;;;;;;;6.07;2.75;;;;;;;;;;5027946;28;20058;-64
2022/12/01 09:22:13;;;;;;;7.00;2.70;;;;;;;;;;4979215;28;20057;-64
2022/12/01 09:24:44;;;;;;;6.82;2.58;;;;;;;;;;4984147;28;20600;-64
2022/12/01 09:27:14;;;;;;;8.18;2.67;;;;;;;;;;4961055;28;20061;-63
2022/12/01 09:29:44;;;;;;;6.10;2.72;;;;;;;;;;4992015;28;20054;-64
2022/12/01 09:32:14;;;;;;;7.45;3.45;;;;;;;;;;4992222;28;20055;-64
2022/12/01 09:34:44;;;;;;;5.40;2.92;;;;;;;;;;4972531;28;20069;-64
2022/12/01 09:37:14;;;;;;;7.43;3.00;;;;;;;;;;4972440;28;20059;-64
2022/12/01 09:39:45;;;;;;;7.28;2.65;;;;;;;;;;4972399;28;20644;-64
2022/12/01 09:42:21;;;;;;;7.43;2.67;;;;;;;;;;4972724;28;20058;-64
2022/12/01 09:44:53;;;;;;;8.63;3.25;;;;;;;;;;4984377;28;20498;-64
2022/12/01 09:47:33;;;;;;;6.80;2.90;;;;;;;;;;4991574;28;20050;-64
2022/12/01 09:50:10;;;;;;;6.35;3.53;;;;;;;;;;4991619;28;20075;-64
2022/12/01 09:52:49;;;;;;;8.68;3.15;;;;;;;;;;4991168;28;20050;-64
2022/12/01 09:55:23;;;;;;;8.77;3.03;;;;;;;;;;4991597;28;20054;-64
2022/12/01 09:57:57;;;;;;;7.88;3.70;;;;;;;;;;4991450;28;20518;-64
2022/12/01 10:00:34;;;;;;;11.45;3.22;;;;;;;;;;4974971;28;20074;-64
2022/12/01 10:03:16;;;;;;;8.40;3.47;;;;;;;;;;4975724;28;20058;-64
2022/12/01 10:05:50;;;;;;;6.05;3.45;;;;;;;;;;4975105;28;20081;-64
2022/12/01 10:09:06;;;;;;;6.28;3.33;;;;;;;;;;5010910;28;20053;-63
2022/12/01 10:11:43;;;;;;;6.95;3.60;;;;;;;;;;5010508;28;20054;-65
2022/12/01 10:14:18;;;;;;;7.40;3.53;;;;;;;;;;5013346;28;20052;-63
2022/12/01 10:17:02;;;;;;;7.63;3.55;;;;;;;;;;5013553;28;20042;-65
2022/12/01 10:19:38;;;;;;;7.47;3.85;;;;;;;;;;5011295;28;20410;-65
2022/12/01 10:22:34;;;;;;;8.20;3.22;;;;;;;;;;5024172;28;20977;-65
2022/12/01 10:25:20;;;;;;;8.57;3.70;;;;;;;;;;5012669;28;20049;-65
2022/12/01 10:28:13;;;;;;;9.52;3.60;;;;;;;;;;5012555;28;20046;-64
2022/12/01 10:30:50;;;;;;;8.18;3.00;;;;;;;;;;5012898;28;20042;-64
2022/12/01 10:33:26;;;;;;;13.48;3.67;;;;;;;;;;4978869;28;20514;-64
2022/12/01 10:35:57;;;;;;;7.25;3.13;;;;;;;;;;5012474;28;20046;-64
2022/12/01 10:38:31;;;;;;;9.15;3.42;;;;;;;;;;5012117;28;20410;-64
2022/12/01 10:41:04;;;;;;;7.93;3.00;;;;;;;;;;5012845;28;20045;-63
2022/12/01 10:43:41;;;;;;;6.80;2.88;;;;;;;;;;5013046;28;20053;-64
2022/12/01 10:46:22;;;;;;;9.43;2.42;;;;;;;;;;4977739;28;20054;-65
2022/12/01 10:48:55;;;;;;;5.78;2.47;;;;;;;;;;5012938;28;20038;-65
2022/12/01 10:51:27;;;;;;;3.67;2.25;;;;;;;;;;5002480;28;20423;-64
2022/12/01 10:54:05;;;;;;;2.55;1.50;;;;;;;;;;4958772;28;20058;-65
2022/12/01 10:56:40;;;;;;;3.42;1.40;;;;;;;;;;4993007;28;20054;-65
2022/12/01 10:59:25;;;;;;;2.60;1.40;;;;;;;;;;4992838;28;20058;-64
2022/12/01 11:01:58;;;;;;;4.07;1.33;;;;;;;;;;4995192;28;20394;-64
2022/12/01 11:04:45;;;;;;;3.28;1.13;;;;;;;;;;5019500;28;20047;-65
2022/12/01 11:07:22;;;;;;;3.67;1.20;;;;;;;;;;4974472;28;20055;-64
2022/12/01 11:10:03;;;;;;;4.93;1.20;;;;;;;;;;5006601;28;20062;-64
2022/12/01 11:12:34;;;;;;;1.65;1.08;;;;;;;;;;4990127;28;20043;-65
2022/12/01 11:15:05;;;;;;;2.80;1.23;;;;;;;;;;4990188;28;20098;-64
2022/12/01 11:17:42;;;;;;;1.92;0.93;;;;;;;;;;4972546;28;20050;-64
2022/12/01 11:20:35;;;;;;;5.43;1.20;;;;;;;;;;4983272;28;20061;-64
2022/12/01 11:23:20;;;;;;;1.88;1.02;;;;;;;;;;5008688;28;20057;-64
2022/12/01 11:26:05;;;;;;;3.53;1.23;;;;;;;;;;4992253;28;20050;-64
2022/12/01 11:28:39;;;;;;;3.10;1.20;;;;;;;;;;4992586;28;20509;-63
2022/12/01 11:31:11;;;;;;;4.22;1.30;;;;;;;;;;4991760;28;20532;-64
2022/12/01 11:33:53;;;;;;;5.65;3.10;;;;;;;;;;5008734;28;20052;-64
2022/12/01 11:36:44;;;;;;;2.63;1.40;;;;;;;;;;5008486;28;20073;-63
2022/12/01 11:39:41;;;;;;;3.10;1.00;;;;;;;;;;4974537;28;20053;-63
2022/12/01 11:42:18;;;;;;;3.45;1.20;;;;;;;;;;4970199;28;20055;-63
2022/12/01 11:44:55;;;;;;;3.42;1.00;;;;;;;;;;4969346;28;20066;-64
2022/12/01 11:47:27;;;;;;;5.35;1.13;;;;;;;;;;4937783;28;20047;-63
2022/12/01 11:49:59;;;;;;;4.05;1.38;;;;;;;;;;4937267;28;20428;-63
2022/12/01 11:52:30;;;;;;;;;;;;;;;;;;4989666;28;20050;-64
2022/12/01 11:55:10;;;;;;;4.15;1.42;;;;;;;;;;4989371;28;19929;-64
2022/12/01 11:57:43;;;;;;;6.90;1.70;;;;;;;;;;4972759;28;20466;-63
2022/12/01 12:00:16;;;;;;;2.53;1.02;;;;;;;;;;4940625;28;20112;-63
2022/12/01 12:02:48;;;;;;;3.13;1.52;;;;;;;;;;4988869;28;20402;-63
2022/12/01 12:05:48;;;;;;;4.38;1.63;;;;;;;;;;4989364;28;20416;-63
2022/12/01 12:08:20;;;;;;;2.00;1.40;;;;;;;;;;4957013;28;20054;-63
2022/12/01 12:11:23;;;;;;;2.13;1.23;;;;;;;;;;4989220;28;20054;-62
2022/12/01 12:13:58;;;;;;;3.47;1.17;;;;;;;;;;4956578;28;20517;-63
2022/12/01 12:17:09;;;;;;;3.45;1.30;;;;;;;;;;4989059;28;20067;-63
2022/12/01 12:20:06;;;;;;;3.58;1.10;;;;;;;;;;4990261;28;20050;-64
2022/12/01 12:23:04;;;;;;;3.95;1.27;;;;;;;;;;5027550;28;20061;-63
2022/12/01 12:25:51;;;;;;;3.58;0.90;;;;;;;;;;4982097;28;20503;-64
2022/12/01 12:28:35;;;;;;;1.90;1.20;;;;;;;;;;5008338;28;20118;-63
2022/12/01 12:31:22;;;;;;;3.95;1.27;;;;;;;;;;5008810;28;20058;-63
2022/12/01 12:34:11;;;;;;;2.17;1.20;;;;;;;;;;4960161;28;20057;-64
2022/12/01 12:36:55;;;;;;;2.47;1.70;;;;;;;;;;4976293;28;20418;-64
2022/12/01 12:39:54;;;;;;;2.90;1.30;;;;;;;;;;4989017;28;20541;-63
2022/12/01 12:42:51;;;;;;;2.30;1.10;;;;;;;;;;4956568;28;20062;-63
2022/12/01 12:45:29;;;;;;;4.03;1.27;;;;;;;;;;4988696;28;20058;-63
2022/12/01 12:48:19;;;;;;;2.63;1.20;;;;;;;;;;4989192;28;20046;-63
2022/12/01 12:50:53;;;;;;;2.78;1.17;;;;;;;;;;4968996;28;20054;-63
2022/12/01 12:53:31;;;;;;;2.83;1.02;;;;;;;;;;4975622;28;20059;-64
2022/12/01 12:56:06;;;;;;;1.95;0.80;;;;;;;;;;4975157;28;20058;-61
2022/12/01 12:58:52;;;;;;;1.38;0.80;;;;;;;;;;4921478;28;20046;-62
2022/12/01 13:01:37;;;;;;;2.05;1.10;;;;;;;;;;4971686;28;20418;-62
2022/12/01 13:04:20;;;;;;;1.40;0.73;;;;;;;;;;4956030;28;20039;-62
2022/12/01 13:07:16;;;;;;;1.50;0.90;;;;;;;;;;4953218;29;20055;-61
2022/12/01 13:09:51;;;;;;;2.90;0.90;;;;;;;;;;4932700;29;20051;-62
2022/12/01 13:12:31;;;;;;;2.33;1.35;;;;;;;;;;4918756;29;20055;-61
2022/12/01 13:15:20;;;;;;;2.28;0.80;;;;;;;;;;4934392;29;20048;-63
2022/12/01 13:18:01;;;;;;;1.60;0.75;;;;;;;;;;4950266;28;20055;-63
2022/12/01 13:20:34;;;;;;;8.45;2.28;;;;;;;;;;4936717;29;20047;-65
2022/12/01 13:23:05;;;;;;;4.57;1.38;;;;;;;;;;4953680;28;20068;-64
2022/12/01 13:25:39;;;;;;;3.40;1.20;;;;;;;;;;4953182;28;20058;-65
2022/12/01 13:28:34;;;;;;;2.65;1.20;;;;;;;;;;4953180;28;20055;-63
2022/12/01 13:31:07;;;;;;;1.48;0.80;;;;;;;;;;4921183;28;20063;-62
2022/12/01 13:33:44;;;;;;;3.08;0.80;;;;;;;;;;4953218;28;20063;-64
2022/12/01 13:36:14;;;;;;;1.15;0.60;;;;;;;;;;4968759;28;20047;-64
2022/12/01 13:39:06;;;;;;;1.60;0.68;;;;;;;;;;4936615;28;20062;-65
2022/12/01 13:41:38;;;;;;;4.22;1.38;;;;;;;;;;4943128;28;20554;-63
2022/12/01 13:44:21;;;;;;;2.33;0.80;;;;;;;;;;4993953;28;20050;-64
2022/12/01 13:47:04;;;;;;;2.17;0.80;;;;;;;;;;4994414;28;20039;-64
2022/12/01 13:49:39;;;;;;;1.30;0.60;;;;;;;;;;4993957;28;20042;-63
2022/12/01 13:52:24;;;;;;;1.25;0.70;;;;;;;;;;5002904;28;20050;-64
2022/12/01 13:55:07;;;;;;;1.17;0.77;;;;;;;;;;5013690;28;20053;-63
2022/12/01 13:58:13;;;;;;;4.07;0.70;;;;;;;;;;4978947;28;20057;-64
2022/12/01 14:00:43;;;;;;;4.13;0.82;;;;;;;;;;5011028;28;20050;-62
2022/12/01 14:03:15;;;;;;;1.60;0.65;;;;;;;;;;5012667;28;20060;-63
2022/12/01 14:05:52;;;;;;;1.17;0.50;;;;;;;;;;5011199;28;20054;-62
2022/12/01 14:08:33;;;;;;;3.60;0.60;;;;;;;;;;5012625;28;20042;-64
2022/12/01 14:11:08;;;;;;;0.57;0.50;;;;;;;;;;5013010;28;20045;-64
2022/12/01 14:14:33;;;;;;;1.13;0.50;;;;;;;;;;5006929;28;20049;-63
2022/12/01 14:17:04;;;;;;;1.10;0.93;;;;;;;;;;4970043;28;20051;-62
2022/12/01 14:19:50;;;;;;;1.00;0.60;;;;;;;;;;4950493;28;20181;-63
2022/12/01 14:22:31;;;;;;;0.70;0.45;;;;;;;;;;4985187;28;20197;-64
2022/12/01 14:25:22;;;;;;;2.42;0.65;;;;;;;;;;4990185;28;20054;-65
2022/12/01 14:27:58;;;;;;;1.63;0.40;;;;;;;;;;4989118;28;20051;-65
2022/12/01 14:30:41;;;;;;;1.35;0.50;;;;;;;;;;4988813;28;20050;-64
2022/12/01 14:33:38;;;;;;;1.00;0.60;;;;;;;;;;5010190;28;20057;-65
2022/12/01 14:36:33;;;;;;;0.90;0.60;;;;;;;;;;5010393;28;20530;-65
2022/12/01 14:39:26;;;;;;;1.30;0.60;;;;;;;;;;4951494;29;20047;-66
2022/12/01 14:41:58;;;;;;;1.25;0.75;;;;;;;;;;4951706;29;20419;-65
2022/12/01 14:44:48;;;;;;;1.50;0.55;;;;;;;;;;4951878;29;20059;-66
2022/12/01 14:47:35;;;;;;;0.50;0.40;;;;;;;;;;4951468;29;20047;-64
2022/12/01 14:50:48;;;;;;;0.68;0.40;;;;;;;;;;4912220;29;20044;-64
2022/12/01 14:53:24;;;;;;;0.70;0.40;;;;;;;;;;4894822;29;20068;-65
2022/12/01 14:56:01;;;;;;;0.68;0.40;;;;;;;;;;4894896;29;20056;-66
2022/12/01 14:58:31;;;;;;;0.98;0.50;;;;;;;;;;4894388;29;20167;-65
2022/12/01 15:01:04;;;;;;;1.10;0.60;;;;;;;;;;4894431;29;20505;-65
2022/12/01 15:03:42;;;;;;;1.27;0.60;;;;;;;;;;4894136;29;20053;-66
2022/12/01 15:06:22;;;;;;;2.05;0.80;;;;;;;;;;4894237;29;20459;-65
2022/12/01 15:09:09;;;;;;;0.98;0.60;;;;;;;;;;4878915;29;20086;-65
2022/12/01 15:12:08;;;;;;;1.10;1.00;;;;;;;;;;4875714;29;20438;-64
2022/12/01 15:14:48;;;;;;;1.65;0.50;;;;;;;;;;4875661;29;20060;-64
2022/12/01 15:17:36;;;;;;;1.25;0.55;;;;;;;;;;4927164;29;20051;-64
2022/12/01 15:20:33;;;;;;;2.55;0.68;;;;;;;;;;4900517;29;20051;-65
2022/12/01 15:23:14;;;;;;;0.68;0.52;;;;;;;;;;4935014;28;20051;-67
2022/12/01 15:25:46;;;;;;;1.27;0.88;;;;;;;;;;4986415;28;20050;-67
2022/12/01 15:28:22;;;;;;;0.75;0.60;;;;;;;;;;5005817;28;20056;-64
2022/12/01 15:30:54;;;;;;;0.80;0.60;;;;;;;;;;5011971;28;20049;-66
2022/12/01 15:33:29;;;;;;;1.30;0.73;;;;;;;;;;5025550;28;20502;-64
2022/12/01 15:36:07;;;;;;;2.10;0.63;;;;;;;;;;5011770;28;20042;-63
2022/12/01 15:38:39;;;;;;;1.33;0.65;;;;;;;;;;5025206;28;20062;-64
2022/12/01 15:41:17;;;;;;;2.25;0.40;;;;;;;;;;4977133;28;20084;-65